Dades meteomassalio
Diari Summary for Diciembre 08, 2017 Units:  English    Metric   Both
« Previous Day
Next Day »
Diari Semanal Mensual Anual Personalitzat
  Maxima: Minima: Mijana:
Temperatura: 57.9 °F 21.9 °F 40.8 °F
Rosada: 43.7 °F 18.5 °F 32.7 °F
Humitat: 88 % 58 % 74 %
Velocitat del vent: 24.2 mph 0 mph 8.6 mph
Racha vent: 24.2 mph - -
Vent:- - NW
Pressio: 30.5 in 30.3 in -
Pluja: 0 in    
Historical Graphs
 
 
Tabular Data for Diciembre 08, 2017
Time Temperature Dew Point Pressure Wind Wind Speed Wind Gust Humidity Rainfall Rate (Hourly) solar Conditions
00:06 24.1 °F 20.5 °F 30.5 in Calm     86 % 0 in 0.0 W/m2 CLR
00:11 24.1 °F 20.5 °F 30.5 in Calm     86 % 0 in 0.0 W/m2 CLR
00:16 24.1 °F 20.5 °F 30.5 in Calm     86 % 0 in 0.0 W/m2 CLR
00:21 24.1 °F 20.5 °F 30.5 in Calm     86 % 0 in 0.0 W/m2 CLR
00:26 23 °F 19.4 °F 30.5 in Calm     86 % 0 in 0.0 W/m2 CLR
00:31 23 °F 19.4 °F 30.5 in Calm     86 % 0 in 0.0 W/m2 CLR
00:36 23 °F 19.4 °F 30.5 in Calm     86 % 0 in 0.0 W/m2 CLR
00:51 23 °F 19.4 °F 30.5 in Calm     86 % 0 in 0.0 W/m2 CLR
01:01 21.9 °F 18.7 °F 30.5 in Calm     87 % 0 in 0.0 W/m2 CLR
01:06 21.9 °F 18.7 °F 30.5 in WSW 3 mph 3 mph 87 % 0 in 0.0 W/m2 CLR
01:11 21.9 °F 18.7 °F 30.5 in WSW 1.2 mph   87 % 0 in 0.0 W/m2 CLR
01:16 23 °F 19.8 °F 30.5 in Calm     87 % 0 in 0.0 W/m2 CLR
01:26 23 °F 19.8 °F 30.5 in Calm     87 % 0 in 0.0 W/m2 CLR
01:31 23 °F 19.8 °F 30.5 in Calm     87 % 0 in 0.0 W/m2 CLR
01:36 23 °F 19.8 °F 30.5 in WSW 1 mph 1 mph 87 % 0 in 0.0 W/m2 CLR
01:41 21.9 °F 18.7 °F 30.5 in Calm     87 % 0 in 0.0 W/m2 CLR
01:51 21.9 °F 18.7 °F 30.5 in Calm     87 % 0 in 0.0 W/m2 CLR
01:56 21.9 °F 19 °F 30.5 in Calm     88 % 0 in 0.0 W/m2 CLR
02:06 21.9 °F 18.7 °F 30.5 in Calm     87 % 0 in 0.0 W/m2 CLR
02:11 21.9 °F 18.7 °F 30.5 in Calm     87 % 0 in 0.0 W/m2 CLR
02:16 21.9 °F 18.7 °F 30.5 in Calm     87 % 0 in 0.0 W/m2 CLR
02:26 21.9 °F 18.7 °F 30.5 in Calm     87 % 0 in 0.0 W/m2 CLR
02:31 21.9 °F 18.5 °F 30.5 in Calm     86 % 0 in 0.0 W/m2 CLR
02:36 23 °F 19.4 °F 30.5 in Calm     86 % 0 in 0.0 W/m2 CLR
02:41 23 °F 19.4 °F 30.5 in Calm     86 % 0 in 0.0 W/m2 CLR
02:46 23 °F 19.4 °F 30.5 in Calm     86 % 0 in 0.0 W/m2 CLR
02:51 23 °F 19.4 °F 30.5 in Calm     86 % 0 in 0.0 W/m2 CLR
03:01 23 °F 19.8 °F 30.5 in Calm     87 % 0 in 0.0 W/m2 CLR
03:11 24.1 °F 20.7 °F 30.5 in Calm     87 % 0 in 0.0 W/m2 CLR
03:16 24.1 °F 20.7 °F 30.5 in Calm     87 % 0 in 0.0 W/m2 CLR
03:21 23 °F 19.8 °F 30.5 in Calm     87 % 0 in 0.0 W/m2 CLR
03:26 23 °F 19.8 °F 30.5 in Calm     87 % 0 in 0.0 W/m2 CLR
03:31 23 °F 19.9 °F 30.5 in Calm     88 % 0 in 0.0 W/m2 CLR
03:41 24.1 °F 20.7 °F 30.5 in Calm     87 % 0 in 0.0 W/m2 CLR
03:46 24.1 °F 20.7 °F 30.5 in Calm     87 % 0 in 0.0 W/m2 CLR
03:51 25 °F 21.7 °F 30.5 in Calm     87 % 0 in 0.0 W/m2 CLR
04:01 25 °F 21.7 °F 30.4 in Calm     87 % 0 in 0.0 W/m2 CLR
04:06 26.1 °F 22.6 °F 30.4 in Calm     87 % 0 in 0.0 W/m2 CLR
04:19 26.1 °F 22.6 °F 30.4 in Calm     87 % 0 in 0.0 W/m2 CLR
04:21 26.1 °F 22.6 °F 30.4 in Calm     87 % 0 in 0.0 W/m2 CLR
04:22 26.1 °F 22.6 °F 30.4 in Calm     87 % 0 in 0.0 W/m2 CLR
04:26 27 °F 23.4 °F 30.4 in Calm     86 % 0 in 0.0 W/m2 CLR
04:31 27 °F 23.4 °F 30.4 in Calm     86 % 0 in 0.0 W/m2 CLR
04:37 27 °F 23.4 °F 30.4 in Calm     86 % 0 in 0.0 W/m2 CLR
04:47 27 °F 23.4 °F 30.4 in Calm     86 % 0 in 0.0 W/m2 CLR
04:52 27 °F 23.2 °F 30.4 in Calm     85 % 0 in 0.0 W/m2 CLR
04:57 27 °F 23.2 °F 30.4 in Calm     85 % 0 in 0.0 W/m2 CLR
05:02 26.1 °F 22.1 °F 30.4 in Calm     85 % 0 in 0.0 W/m2 CLR
05:12 26.1 °F 22.1 °F 30.4 in Calm     85 % 0 in 0.0 W/m2 CLR
05:22 26.1 °F 22.1 °F 30.4 in Calm     85 % 0 in 0.0 W/m2 CLR
05:27 26.1 °F 22.1 °F 30.4 in Calm     85 % 0 in 0.0 W/m2 CLR
05:32 26.1 °F 22.5 °F 30.4 in Calm   0.5 mph 86 % 0 in 0.0 W/m2 CLR
05:37 27 °F 23.5 °F 30.4 in West 2.3 mph 2.3 mph 87 % 0 in 0.0 W/m2 CLR
05:42 27 °F 23.4 °F 30.4 in Calm     86 % 0 in 0.0 W/m2 CLR
05:47 27 °F 23.4 °F 30.4 in Calm     86 % 0 in 0.0 W/m2 CLR
05:52 27 °F 23.4 °F 30.4 in Calm     86 % 0 in 0.0 W/m2 CLR
05:57 27 °F 23.4 °F 30.4 in Calm     86 % 0 in 0.0 W/m2 CLR
06:02 27 °F 23.4 °F 30.4 in Calm     86 % 0 in 0.0 W/m2 CLR
06:07 27 °F 23.4 °F 30.4 in Calm     86 % 0 in 0.0 W/m2 CLR
06:12 27 °F 23.5 °F 30.4 in Calm     87 % 0 in 0.0 W/m2 CLR
06:17 27 °F 23.5 °F 30.4 in Calm     87 % 0 in 0.0 W/m2 CLR
06:27 28 °F 24.1 °F 30.4 in Calm     85 % 0 in 0.0 W/m2 CLR
06:39 28 °F 23.5 °F 30.4 in Calm     83 % 0 in 0.0 W/m2 CLR
06:49 28 °F 23.5 °F 30.4 in Calm     83 % 0 in 0.0 W/m2 CLR
06:54 28 °F 23.2 °F 30.4 in East 2.3 mph 2.3 mph 82 % 0 in 0.0 W/m2 CLR
07:04 28.9 °F 23.9 °F 30.4 in Calm     81 % 0 in 0.0 W/m2 CLR
07:09 28.9 °F 23.5 °F 30.4 in Calm     80 % 0 in 0.0 W/m2 CLR
07:14 28.9 °F 23.4 °F 30.4 in Calm     79 % 0 in 0.0 W/m2 CLR
07:19 28.9 °F 23 °F 30.4 in Calm     78 % 0 in 0.0 W/m2 CLR
07:29 28.9 °F 23 °F 30.4 in Calm     78 % 0 in 0.0 W/m2 CLR
07:39 28.9 °F 23 °F 30.4 in Calm     78 % 0 in 0.0 W/m2 CLR
07:44 30 °F 24.3 °F 30.4 in Calm     79 % 0 in 0.0 W/m2 CLR
07:49 30 °F 24.3 °F 30.4 in Calm     79 % 0 in 0.0 W/m2 CLR
08:14 28.9 °F 23.4 °F 30.4 in Calm     79 % 0 in 0.0 W/m2 OVC
08:19 28.9 °F 23.4 °F 30.4 in Calm     79 % 0 in 5.0 W/m2 OVC
08:29 28.9 °F 23.5 °F 30.4 in Calm     80 % 0 in 14.0 W/m2 BKN
08:34 28.9 °F 23.4 °F 30.4 in Calm     79 % 0 in 18.0 W/m2 BKN
08:39 28.9 °F 23.4 °F 30.4 in Calm     79 % 0 in 23.0 W/m2 BKN
08:49 28.9 °F 23 °F 30.4 in Calm     78 % 0 in 18.0 W/m2 BKN
08:54 28.9 °F 23 °F 30.4 in Calm     78 % 0 in 19.0 W/m2 BKN
08:59 30 °F 24.1 °F 30.4 in Calm     78 % 0 in 14.0 W/m2 BKN
09:04 30 °F 24.3 °F 30.4 in Calm     79 % 0 in 16.0 W/m2 BKN
09:09 30 °F 24.3 °F 30.4 in Calm     79 % 0 in 21.0 W/m2 BKN
09:14 30 °F 24.6 °F 30.4 in Calm     80 % 0 in 18.0 W/m2 BKN
09:19 30 °F 24.6 °F 30.4 in Calm     80 % 0 in 19.0 W/m2 BKN
09:24 28.9 °F 23.9 °F 30.4 in Calm     81 % 0 in 23.0 W/m2 BKN
09:29 28.9 °F 23.9 °F 30.4 in Calm     81 % 0 in 26.0 W/m2 BKN
09:34 28.9 °F 24.3 °F 30.4 in Calm     82 % 0 in 132.0 W/m2 SCT
09:39 30 °F 25.2 °F 30.4 in Calm     82 % 0 in 130.0 W/m2 CLR
09:49 30 °F 24.3 °F 30.4 in Calm     79 % 0 in 181.0 W/m2 CLR
09:54 30.9 °F 24.6 °F 30.4 in Calm     77 % 0 in 181.0 W/m2 CLR
10:04 33.1 °F 25.9 °F 30.4 in Calm     75 % 0 in 237.0 W/m2 CLR
10:09 34 °F 26.2 °F 30.4 in Calm     73 % 0 in 258.0 W/m2 CLR
10:14 36 °F 27.5 °F 30.4 in Calm     71 % 0 in 151.0 W/m2 CLR
10:19 37 °F 28 °F 30.4 in WNW 3.5 mph 3.5 mph 70 % 0 in 176.0 W/m2 CLR
10:24 37.9 °F 28.8 °F 30.4 in NW 6.9 mph 6.9 mph 69 % 0 in 192.0 W/m2 CLR
10:34 42.1 °F 30.7 °F 30.4 in NW 3.5 mph 3.5 mph 64 % 0 in 301.0 W/m2 CLR
10:49 46 °F 33.6 °F 30.4 in NW 9.2 mph 9.2 mph 62 % 0 in 213.0 W/m2 CLR
10:54 48.9 °F 36.5 °F 30.4 in NW 8.1 mph 8.1 mph 62 % 0 in 264.0 W/m2 CLR
10:59 50 °F 37.6 °F 30.4 in NW 12.7 mph 12.7 mph 62 % 0 in 171.0 W/m2 CLR
11:19 51.1 °F 38.8 °F 30.4 in NNW 11.5 mph 11.5 mph 63 % 0 in 151.0 W/m2 CLR
11:24 51.1 °F 38.8 °F 30.4 in North 10.4 mph 10.4 mph 63 % 0 in 178.0 W/m2 CLR
11:34 52 °F 39.7 °F 30.4 in North 11.5 mph 11.5 mph 63 % 0 in 248.0 W/m2 CLR
11:39 52 °F 39.7 °F 30.4 in North 12 mph 12 mph 63 % 0 in 190.0 W/m2 CLR
11:44 52 °F 39.7 °F 30.4 in NNW 15 mph 15 mph 63 % 0 in 178.0 W/m2 CLR
11:49 52 °F 39.7 °F 30.4 in North 11.5 mph 11.5 mph 63 % 0 in 176.0 W/m2 CLR
11:59 52 °F 39.7 °F 30.4 in NNW 12 mph 12 mph 63 % 0 in 204.0 W/m2 CLR
12:04 52 °F 39.7 °F 30.4 in NNW 10.4 mph 10.4 mph 63 % 0 in 197.0 W/m2 CLR
12:14 53.1 °F 40.6 °F 30.4 in North 8.1 mph 8.1 mph 63 % 0 in 223.0 W/m2 CLR
12:19 53.1 °F 40.3 °F 30.4 in North 16 mph 16 mph 62 % 0 in 308.0 W/m2 CLR
12:24 53.1 °F 40.3 °F 30.4 in NNW 17 mph 17 mph 62 % 0 in 339.0 W/m2 CLR
12:29 54 °F 41.4 °F 30.4 in NNW 18.4 mph 18.4 mph 62 % 0 in 302.0 W/m2 CLR
12:34 54 °F 41.4 °F 30.4 in North 15 mph 15 mph 62 % 0 in 329.0 W/m2 CLR
12:39 54 °F 40.8 °F 30.4 in NNE 12 mph 12 mph 61 % 0 in 318.0 W/m2 CLR
12:44 54 °F 40.8 °F 30.4 in North 10.4 mph 10.4 mph 61 % 0 in 239.0 W/m2 CLR
12:49 53.1 °F 39.6 °F 30.4 in NNW 9.2 mph 9.2 mph 60 % 0 in 220.0 W/m2 CLR
12:54 53.1 °F 39.6 °F 30.4 in NNW 11.5 mph 11.5 mph 60 % 0 in 234.0 W/m2 CLR
13:05 53.1 °F 39.9 °F 30.4 in NNW 15 mph 15 mph 61 % 0 in 209.0 W/m2 CLR
13:10 53.1 °F 39.9 °F 30.4 in NW 11.5 mph 11.5 mph 61 % 0 in 195.0 W/m2 CLR
13:15 54 °F 41.4 °F 30.4 in NW 13 mph 13 mph 62 % 0 in 167.0 W/m2 CLR
13:20 54 °F 41.4 °F 30.4 in NNW 16.1 mph 16.1 mph 62 % 0 in 158.0 W/m2 CLR
13:25 54 °F 40.8 °F 30.4 in North 13.8 mph 13.8 mph 61 % 0 in 279.0 W/m2 CLR
13:30 55 °F 41.7 °F 30.4 in NNW 14 mph 14 mph 61 % 0 in 320.0 W/m2 CLR
13:40 55.9 °F 41.9 °F 30.4 in NNW 14 mph 14 mph 59 % 0 in 378.0 W/m2 CLR
13:45 57 °F 42.8 °F 30.4 in NNW 16 mph 16 mph 59 % 0 in 461.0 W/m2 CLR
13:50 57 °F 42.8 °F 30.4 in NNW 16 mph 16 mph 59 % 0 in 466.0 W/m2 CLR
13:55 57 °F 42.4 °F 30.3 in NNW 17.3 mph 17.3 mph 58 % 0 in 436.0 W/m2 CLR
14:00 57.9 °F 43.3 °F 30.3 in NNW 15 mph 15 mph 58 % 0 in 338.0 W/m2 CLR
14:05 57 °F 42.8 °F 30.4 in NNW 18.4 mph 18.4 mph 59 % 0 in 272.0 W/m2 CLR
14:15 57 °F 42.8 °F 30.3 in North 12 mph 12 mph 59 % 0 in 176.0 W/m2 CLR
14:25 55.9 °F 42.3 °F 30.4 in NNW 21.9 mph 21.9 mph 60 % 0 in 183.0 W/m2 CLR
14:30 55.9 °F 41.9 °F 30.3 in NW 17.3 mph 17.3 mph 59 % 0 in 172.0 W/m2 CLR
14:35 55.9 °F 41.9 °F 30.3 in North 19 mph 19 mph 59 % 0 in 127.0 W/m2 CLR
14:40 55.9 °F 42.3 °F 30.3 in NNW 17.3 mph 17.3 mph 60 % 0 in 127.0 W/m2 CLR
14:50 55.9 °F 42.6 °F 30.3 in NNW 24.2 mph 24.2 mph 61 % 0 in 130.0 W/m2 CLR
14:55 55.9 °F 42.6 °F 30.3 in North 23 mph 23 mph 61 % 0 in 153.0 W/m2 CLR
15:00 55.9 °F 42.6 °F 30.3 in NNW 20.7 mph 20.7 mph 61 % 0 in 130.0 W/m2 CLR
15:05 55.9 °F 42.6 °F 30.3 in North 19 mph 19 mph 61 % 0 in 118.0 W/m2 CLR
15:10 55.9 °F 42.6 °F 30.3 in North 18 mph 18 mph 61 % 0 in 113.0 W/m2 CLR
15:15 55 °F 42.3 °F 30.3 in NNW 16.1 mph 16.1 mph 62 % 0 in 105.0 W/m2 CLR
15:30 55 °F 42.3 °F 30.3 in NNW 19.6 mph 19.6 mph 62 % 0 in 113.0 W/m2 CLR
15:35 55.9 °F 43.2 °F 30.3 in NNW 18 mph 18 mph 62 % 0 in 306.0 W/m2 CLR
15:40 57 °F 43.7 °F 30.3 in North 20.7 mph 20.7 mph 61 % 0 in 309.0 W/m2 CLR
15:45 57 °F 43.2 °F 30.3 in NNW 21.9 mph 21.9 mph 60 % 0 in 318.0 W/m2 CLR
15:50 57 °F 43.2 °F 30.3 in NNW 22 mph 22 mph 60 % 0 in 304.0 W/m2 CLR
15:55 57 °F 43.2 °F 30.3 in NW 15 mph 15 mph 60 % 0 in 192.0 W/m2 CLR
16:00 57 °F 43.2 °F 30.3 in North 19.6 mph 19.6 mph 60 % 0 in 153.0 W/m2 CLR
16:05 57 °F 43.2 °F 30.3 in NNW 23 mph 23 mph 60 % 0 in 125.0 W/m2 CLR
16:10 55.9 °F 42.3 °F 30.3 in NNW 24.2 mph 24.2 mph 60 % 0 in 90.0 W/m2 CLR
16:15 55.9 °F 42.6 °F 30.3 in NW 18.4 mph 18.4 mph 61 % 0 in 60.0 W/m2 CLR
16:20 55.9 °F 42.6 °F 30.3 in NNW 20.7 mph 20.7 mph 61 % 0 in 58.0 W/m2 FEW
16:25 55 °F 42.3 °F 30.3 in North 19.6 mph 19.6 mph 62 % 0 in 86.0 W/m2 SCT
16:30 55 °F 42.3 °F 30.3 in NW 15 mph 15 mph 62 % 0 in 114.0 W/m2 FEW
16:35 55 °F 41.7 °F 30.3 in NNW 18.4 mph 18.4 mph 61 % 0 in 109.0 W/m2 CLR
16:40 55 °F 41.7 °F 30.3 in NW 13.8 mph 13.8 mph 61 % 0 in 109.0 W/m2 CLR
16:45 55 °F 42.3 °F 30.3 in NNW 18.4 mph 18.4 mph 62 % 0 in 91.0 W/m2 CLR
17:00 55 °F 42.6 °F 30.3 in NW 19.6 mph 19.6 mph 63 % 0 in 39.0 W/m2 SCT
17:10 55 °F 43 °F 30.3 in North 19.6 mph 19.6 mph 64 % 0 in 23.0 W/m2 BKN
17:15 54 °F 42.1 °F 30.3 in NNW 19.6 mph 19.6 mph 64 % 0 in 18.0 W/m2 BKN
17:20 54 °F 42.1 °F 30.3 in NW 15 mph 15 mph 64 % 0 in 11.0 W/m2 BKN
17:25 54 °F 42.1 °F 30.3 in NW 18.4 mph 18.4 mph 64 % 0 in 7.0 W/m2 BKN
17:35 54 °F 42.4 °F 30.3 in NW 16 mph 16 mph 65 % 0 in 0.0 W/m2 OVC
17:40 54 °F 42.4 °F 30.3 in NW 15 mph 15 mph 65 % 0 in 0.0 W/m2 OVC
17:45 53.1 °F 41.5 °F 30.3 in NW 13.8 mph 13.8 mph 65 % 0 in 0.0 W/m2 CLR
17:50 53.1 °F 41.5 °F 30.3 in NW 19.6 mph 19.6 mph 65 % 0 in 0.0 W/m2 CLR
17:55 53.1 °F 41.5 °F 30.3 in North 16.1 mph 16.1 mph 65 % 0 in 0.0 W/m2 CLR
18:00 53.1 °F 41.9 °F 30.3 in North 12 mph 12 mph 66 % 0 in 0.0 W/m2 CLR
18:10 53.1 °F 41.9 °F 30.3 in NW 12.7 mph 12.7 mph 66 % 0 in 0.0 W/m2 CLR
18:20 52 °F 41.4 °F 30.3 in North 17.3 mph 17.3 mph 67 % 0 in 0.0 W/m2 CLR
18:25 52 °F 41.7 °F 30.3 in North 19.6 mph 19.6 mph 68 % 0 in 0.0 W/m2 CLR
18:30 52 °F 42.1 °F 30.3 in NNW 19.6 mph 19.6 mph 69 % 0 in 0.0 W/m2 CLR
18:40 52 °F 42.1 °F 30.3 in NNW 16.1 mph 16.1 mph 69 % 0 in 0.0 W/m2 CLR
18:45 52 °F 42.4 °F 30.3 in North 18.4 mph 18.4 mph 70 % 0 in 0.0 W/m2 CLR
18:50 52 °F 42.4 °F 30.3 in NNE 12 mph 12 mph 70 % 0 in 0.0 W/m2 CLR
19:00 52 °F 42.4 °F 30.3 in North 19.6 mph 19.6 mph 70 % 0 in 0.0 W/m2 CLR
19:05 52 °F 42.4 °F 30.3 in NNW 20 mph 20 mph 70 % 0 in 0.0 W/m2 CLR
19:10 52 °F 42.4 °F 30.3 in NNW 24 mph 24 mph 70 % 0 in 0.0 W/m2 CLR
19:20 52 °F 42.4 °F 30.3 in NW 11.5 mph 11.5 mph 70 % 0 in 0.0 W/m2 CLR
19:25 51.1 °F 41.5 °F 30.3 in NNW 17 mph 17 mph 70 % 0 in 0.0 W/m2 CLR
19:45 51.1 °F 42.3 °F 30.3 in North 24.2 mph 24.2 mph 72 % 0 in 0.0 W/m2 CLR
19:55 51.1 °F 41.9 °F 30.3 in North 19 mph 19 mph 71 % 0 in 0.0 W/m2 CLR
20:00 51.1 °F 42.3 °F 30.3 in NNW 19 mph 19 mph 72 % 0 in 0.0 W/m2 CLR
20:05 51.1 °F 42.3 °F 30.3 in NNW 19.6 mph 19.6 mph 72 % 0 in 0.0 W/m2 CLR
20:10 50 °F 41.4 °F 30.3 in North 13 mph 13 mph 72 % 0 in 0.0 W/m2 CLR
20:20 50 °F 41.7 °F 30.3 in North 17 mph 17 mph 73 % 0 in 0.0 W/m2 CLR
20:30 48.9 °F 41.2 °F 30.3 in NNW 18.4 mph 18.4 mph 74 % 0 in 0.0 W/m2 CLR
20:35 48.9 °F 41.2 °F 30.3 in NNW 17.3 mph 17.3 mph 74 % 0 in 0.0 W/m2 CLR
20:40 48.9 °F 41.2 °F 30.3 in NW 12 mph 12 mph 74 % 0 in 0.0 W/m2 CLR
20:50 48.9 °F 41.4 °F 30.3 in NW 17.3 mph 17.3 mph 75 % 0 in 0.0 W/m2 CLR
21:00 48.9 °F 41.7 °F 30.3 in North 14 mph 14 mph 76 % 0 in 0.0 W/m2 CLR
21:10 48.9 °F 41.7 °F 30.3 in NNW 12.7 mph 12.7 mph 76 % 0 in 0.0 W/m2 CLR
21:15 48.9 °F 41.7 °F 30.3 in NW 11.5 mph 11.5 mph 76 % 0 in 0.0 W/m2 CLR
21:20 48.9 °F 42.1 °F 30.3 in NW 17.3 mph 17.3 mph 77 % 0 in 0.0 W/m2 CLR
21:25 48.9 °F 42.1 °F 30.3 in NNW 16 mph 16 mph 77 % 0 in 0.0 W/m2 CLR
21:35 48 °F 41.2 °F 30.3 in North 15 mph 15 mph 77 % 0 in 0.0 W/m2 CLR
21:45 48 °F 41.2 °F 30.3 in NNW 11.5 mph 11.5 mph 77 % 0 in 0.0 W/m2 CLR
21:50 48 °F 41.5 °F 30.3 in NW 11.5 mph 11.5 mph 78 % 0 in 0.0 W/m2 CLR
21:55 48 °F 41.5 °F 30.3 in NNW 13.8 mph 13.8 mph 78 % 0 in 0.0 W/m2 CLR
22:05 48 °F 41.5 °F 30.3 in North 12.7 mph 12.7 mph 78 % 0 in 0.0 W/m2 CLR
22:10 48 °F 41.5 °F 30.3 in North 16.1 mph 16.1 mph 78 % 0 in 0.0 W/m2 CLR
22:15 48 °F 41.2 °F 30.3 in NNW 15 mph 15 mph 77 % 0 in 0.0 W/m2 CLR
22:20 46.9 °F 40.5 °F 30.3 in North 18.4 mph 18.4 mph 78 % 0 in 0.0 W/m2 CLR
22:25 46.9 °F 40.3 °F 30.3 in WNW 10.4 mph 10.4 mph 77 % 0 in 0.0 W/m2 CLR
22:30 46.9 °F 40.3 °F 30.3 in NNW 11.5 mph 11.5 mph 77 % 0 in 0.0 W/m2 CLR
22:35 46.9 °F 40.5 °F 30.3 in NW 11.5 mph 11.5 mph 78 % 0 in 0.0 W/m2 CLR
22:40 46.9 °F 40.3 °F 30.3 in North 8.1 mph 8.1 mph 77 % 0 in 0.0 W/m2 CLR
22:56 46.9 °F 40.5 °F 30.3 in WNW 6.9 mph 6.9 mph 78 % 0 in 0.0 W/m2 CLR
22:57 46 °F 39.6 °F 30.3 in NW 3.5 mph   78 % 0 in 0.0 W/m2 CLR
23:02 46 °F 39.6 °F 30.3 in WNW 8.1 mph 8.1 mph 78 % 0 in 0.0 W/m2 CLR
23:07 46 °F 39.6 °F 30.3 in NNW 9 mph 9 mph 78 % 0 in 0.0 W/m2 CLR
23:12 46 °F 39.2 °F 30.3 in NW 8 mph 8 mph 77 % 0 in 0.0 W/m2 CLR
23:22 46 °F 38.8 °F 30.3 in NNW 18 mph 18 mph 76 % 0 in 0.0 W/m2 CLR
23:32 46 °F 38.5 °F 30.3 in NW 13.8 mph 13.8 mph 75 % 0 in 0.0 W/m2 CLR
23:42 46 °F 38.5 °F 30.3 in NW 15 mph 15 mph 75 % 0 in 0.0 W/m2 CLR
23:47 46 °F 38.1 °F 30.3 in West 11 mph 11 mph 74 % 0 in 0.0 W/m2 CLR
23:52 46 °F 38.5 °F 30.3 in NW 10.4 mph 10.4 mph 75 % 0 in 0.0 W/m2 CLR
23:57 46 °F 38.5 °F 30.3 in North 13.8 mph 13.8 mph 75 % 0 in 0.0 W/m2 CLR
Lo Temps de Massalio
Compliments of Weather Underground - 1 mb